Crothersville, Indiana
Current Conditions -  °F | °C
As of 9:50 PM on Saturday 22 Nov 2014 (Local Time) from KBAK Reporting Station
Scattered Clouds Scattered Clouds  
Wind Chill: 50°   Ceiling: Unl
Heat Index: 50°   Visibility: 10mi
Dew Point: 37°   Wind: 9mph
Humidity: 62%   Direction: 170°S
Pressure: 30.04"   Gusts: NA
Location:  38.8°N, 85.84°W
Report Text: KBAK 230250Z 17008KT 10SM SCT090 10/03 A3004
Loading
Personal Weather Stations






























Interactive Weather Map New forecast layout! Learn more

10-Day Weather Forecast

Advertisements
Track Severe Weather on mobile